Sds Green — ICOK — position and weather

sailwx.info

Track history (hours):
 
Tides and Currents Weather Stations Pressure Air Temp Water Temp Dewpoint Dewpoint Depression Visibility Wind Speed Wind Dir Waves Ship Positions

Sds Green

Last reported at 2014-Oct-24 14:32 UTC. Time now 2014-Oct-24 14:45 UTC.
Position N 43°25' E 004°56'.

Length 108 m; draft 4.6 m.

Type: Cargo ship. MMSI: 247292200.

Date/timePositionNaut miles runAvg speedWind from/ knotsBaromVisibWave heightAir tempDewpointWater temp
2014-Oct-24 14:32N 43°25' E 004°56'4 4.3
2014-Oct-24 13:34N 43°21' E 004°59'1010.3
2014-Oct-24 12:34N 43°11' E 005°01'1412.3
2014-Oct-24 11:25N 43°08' E 004°42'2712.7
2014-Oct-24 09:20N 43°05' E 004°06'1213.3
2014-Oct-24 08:26N 43°03' E 003°50'95 9.5
2014-Oct-23 22:30N 41°34' E 003°07'3 2.1
2014-Oct-23 21:14N 41°32' E 003°05'1211.7
2014-Oct-23 20:15N 41°21' E 002°59'1112.2
2014-Oct-23 19:23N 41°11' E 002°53'1212.2
2014-Oct-23 18:25N 41°01' E 002°47'1212.8
2014-Oct-23 17:30N 40°50' E 002°40'1312.3
2014-Oct-23 16:26N 40°38' E 002°32'1312.7
2014-Oct-23 15:26N 40°27' E 002°24'1212.5
2014-Oct-23 14:28N 40°17' E 002°17'1312.2
2014-Oct-23 13:24N 40°04' E 002°14'1211.7
2014-Oct-23 12:24N 39°52' E 002°13'1411.6
2014-Oct-23 11:12N 39°38' E 002°12'1311.6
2014-Oct-23 10:06N 39°26' E 002°14'912.6
2014-Oct-23 09:23N 39°17' E 002°15'1713.0
2014-Oct-23 08:04N 38°60' E 002°19'1313.6
2014-Oct-23 07:07N 38°47' E 002°22'  
Track history (hours):
 
Tides and Currents Weather Stations Pressure Air Temp Water Temp Dewpoint Dewpoint Depression Visibility Wind Speed Wind Dir Waves Ship Positions

Sds Green

Last reported at 2014-Oct-24 14:32 UTC. Time now 2014-Oct-24 14:45 UTC.
Position N 43°25' E 004°56'.

Length 108 m; draft 4.6 m.

Type: Cargo ship. MMSI: 247292200.

Date/timePositionNaut miles runAvg speedWind from/ knotsBaromVisibWave heightAir tempDewpointWater temp
2014-Oct-24 14:32N 43°25' E 004°56'4 4.3
2014-Oct-24 13:34N 43°21' E 004°59'1010.3
2014-Oct-24 12:34N 43°11' E 005°01'1412.3
2014-Oct-24 11:25N 43°08' E 004°42'2712.7
2014-Oct-24 09:20N 43°05' E 004°06'1213.3
2014-Oct-24 08:26N 43°03' E 003°50'95 9.5
2014-Oct-23 22:30N 41°34' E 003°07'3 2.1
2014-Oct-23 21:14N 41°32' E 003°05'1211.7
2014-Oct-23 20:15N 41°21' E 002°59'1112.2
2014-Oct-23 19:23N 41°11' E 002°53'1212.2
2014-Oct-23 18:25N 41°01' E 002°47'1212.8
2014-Oct-23 17:30N 40°50' E 002°40'1312.3
2014-Oct-23 16:26N 40°38' E 002°32'1312.7
2014-Oct-23 15:26N 40°27' E 002°24'1212.5
2014-Oct-23 14:28N 40°17' E 002°17'1312.2
2014-Oct-23 13:24N 40°04' E 002°14'1211.7
2014-Oct-23 12:24N 39°52' E 002°13'1411.6
2014-Oct-23 11:12N 39°38' E 002°12'1311.6
2014-Oct-23 10:06N 39°26' E 002°14'912.6
2014-Oct-23 09:23N 39°17' E 002°15'1713.0
2014-Oct-23 08:04N 38°60' E 002°19'1313.6
2014-Oct-23 07:07N 38°47' E 002°22'  

Dump ship's entire track history